createdAt,value
2019-06-10T00:00:13.504Z,5.03
2019-06-10T00:02:36.024Z,4.72
2019-06-10T00:05:07.328Z,5.28
2019-06-10T00:07:35.092Z,5.67
2019-06-10T00:10:04.486Z,5.80
2019-06-10T00:12:31.637Z,5.30
2019-06-10T00:14:58.747Z,5.30
2019-06-10T00:17:25.376Z,5.00
2019-06-10T00:19:51.920Z,5.50
2019-06-10T00:22:21.594Z,5.80
2019-06-10T00:24:48.346Z,5.67
2019-06-10T00:27:15.030Z,5.17
2019-06-10T00:29:41.460Z,5.25
2019-06-10T00:32:10.284Z,4.92
2019-06-10T00:34:36.469Z,5.97
2019-06-10T00:37:07.280Z,6.15
2019-06-10T00:39:32.400Z,5.80
2019-06-10T00:42:02.491Z,5.72
2019-06-10T00:44:30.733Z,5.70
2019-06-10T00:46:56.850Z,5.65
2019-06-10T00:49:23.426Z,5.33
2019-06-10T00:51:51.003Z,5.40
2019-06-10T00:54:18.902Z,5.53
2019-06-10T00:56:45.855Z,5.50
2019-06-10T00:59:14.825Z,5.20
2019-06-10T01:01:41.604Z,5.70
2019-06-10T01:04:09.335Z,5.40
2019-06-10T01:06:37.171Z,4.97
2019-06-10T01:09:06.694Z,5.50
2019-06-10T01:11:34.151Z,4.90
2019-06-10T01:14:03.067Z,5.30
2019-06-10T01:16:31.774Z,5.40
2019-06-10T01:18:58.082Z,5.10
2019-06-10T01:21:24.657Z,5.50
2019-06-10T01:23:51.201Z,5.15
2019-06-10T01:26:21.314Z,5.08
2019-06-10T01:28:47.014Z,5.75
2019-06-10T01:31:19.057Z,5.83
2019-06-10T01:33:41.777Z,5.67
2019-06-10T01:36:08.374Z,5.33
2019-06-10T01:38:35.064Z,6.15
2019-06-10T01:41:02.593Z,5.33
2019-06-10T01:43:29.060Z,5.20
2019-06-10T01:45:56.011Z,5.55
2019-06-10T01:48:22.856Z,5.83
2019-06-10T01:50:51.295Z,6.05
2019-06-10T01:53:18.823Z,5.45
2019-06-10T01:55:46.863Z,6.10
2019-06-10T01:58:16.351Z,5.53
2019-06-10T02:00:44.038Z,6.03
2019-06-10T02:03:13.522Z,6.35
2019-06-10T02:05:41.903Z,6.37
2019-06-10T02:08:08.784Z,5.83
2019-06-10T02:10:36.535Z,5.22
2019-06-10T02:13:03.127Z,6.58
2019-06-10T02:15:31.520Z,5.85
2019-06-10T02:18:01.035Z,6.70
2019-06-10T02:20:27.137Z,6.30
2019-06-10T02:22:53.542Z,5.83
2019-06-10T02:25:21.652Z,6.28
2019-06-10T02:27:50.638Z,6.28
2019-06-10T02:30:28.454Z,6.65
2019-06-10T02:32:45.120Z,6.53
2019-06-10T02:35:18.080Z,5.83
2019-06-10T02:37:44.060Z,5.83
2019-06-10T02:40:09.149Z,5.90
2019-06-10T02:42:37.781Z,6.45
2019-06-10T02:45:07.575Z,7.62
2019-06-10T02:47:37.901Z,6.87
2019-06-10T02:50:08.790Z,7.42
2019-06-10T02:52:38.233Z,7.75
2019-06-10T02:55:04.090Z,7.65
2019-06-10T02:57:39.393Z,7.85
2019-06-10T03:00:04.186Z,8.70
2019-06-10T03:02:33.063Z,8.50
2019-06-10T03:04:57.715Z,8.95
2019-06-10T03:07:28.728Z,8.98
2019-06-10T03:09:53.779Z,8.45
2019-06-10T03:12:23.013Z,8.55
2019-06-10T03:14:49.178Z,9.18
2019-06-10T03:17:17.826Z,8.80
2019-06-10T03:19:50.326Z,9.00
2019-06-10T03:22:13.288Z,9.53
2019-06-10T03:24:42.037Z,8.73
2019-06-10T03:27:18.358Z,8.60
2019-06-10T03:29:49.832Z,8.90
2019-06-10T03:32:20.180Z,8.38
2019-06-10T03:34:48.083Z,9.18
2019-06-10T03:37:14.624Z,8.68
2019-06-10T03:39:42.740Z,9.50
2019-06-10T03:42:09.240Z,9.20
2019-06-10T03:44:35.849Z,9.33
2019-06-10T03:47:02.854Z,9.18
2019-06-10T03:49:32.034Z,9.18
2019-06-10T03:52:02.291Z,9.35
2019-06-10T03:54:29.525Z,9.40
2019-06-10T03:56:57.262Z,9.60
2019-06-10T03:59:26.130Z,7.70
2019-06-10T04:01:52.976Z,9.23
2019-06-10T04:04:22.411Z,9.58
2019-06-10T04:06:48.403Z,9.00
2019-06-10T04:09:14.952Z,10.00
2019-06-10T04:11:43.127Z,9.63
2019-06-10T04:14:09.738Z,9.75
2019-06-10T04:16:36.126Z,9.50
2019-06-10T04:19:02.820Z,9.28
2019-06-10T04:21:29.362Z,9.45
2019-06-10T04:23:55.926Z,9.20
2019-06-10T04:26:25.229Z,9.48
2019-06-10T04:28:53.061Z,9.33
2019-06-10T04:31:20.604Z,9.75
2019-06-10T04:33:47.762Z,8.55
2019-06-10T04:36:14.374Z,9.65
2019-06-10T04:38:42.988Z,8.75
2019-06-10T04:41:09.228Z,9.85
2019-06-10T04:43:35.758Z,9.43
2019-06-10T04:46:02.631Z,8.78
2019-06-10T04:48:29.493Z,9.35
2019-06-10T04:50:56.011Z,9.28
2019-06-10T04:53:23.683Z,8.88
2019-06-10T04:55:52.274Z,9.13
2019-06-10T04:58:19.378Z,8.13
2019-06-10T05:00:46.145Z,8.10
2019-06-10T05:03:12.566Z,9.03
2019-06-10T05:05:39.240Z,7.90
2019-06-10T05:08:05.818Z,8.08
2019-06-10T05:10:33.166Z,7.65
2019-06-10T05:13:00.126Z,7.67
2019-06-10T05:15:28.409Z,7.72
2019-06-10T05:17:55.191Z,7.20
2019-06-10T05:20:28.333Z,7.17
2019-06-10T05:22:50.157Z,6.67
2019-06-10T05:25:16.638Z,6.70
2019-06-10T05:27:43.331Z,7.33
2019-06-10T05:30:12.103Z,6.67
2019-06-10T05:32:38.360Z,6.62
2019-06-10T05:35:04.995Z,7.00
2019-06-10T05:37:33.648Z,6.62
2019-06-10T05:40:02.060Z,6.85
2019-06-10T05:42:29.254Z,6.80
2019-06-10T05:44:56.170Z,6.12
2019-06-10T05:47:25.041Z,6.72
2019-06-10T05:49:52.909Z,6.80
2019-06-10T05:52:19.630Z,7.08
2019-06-10T05:54:46.051Z,6.58
2019-06-10T05:57:12.454Z,5.95
2019-06-10T05:59:39.820Z,6.87
2019-06-10T06:02:06.293Z,7.42
2019-06-10T06:04:34.678Z,7.67
2019-06-10T06:07:02.376Z,7.00
2019-06-10T06:09:29.261Z,6.90
2019-06-10T06:11:55.803Z,6.87
2019-06-10T06:14:22.726Z,7.75
2019-06-10T06:16:49.326Z,7.12
2019-06-10T06:19:16.113Z,7.42
2019-06-10T06:21:47.308Z,7.53
2019-06-10T06:24:12.850Z,7.17
2019-06-10T06:26:39.875Z,6.80
2019-06-10T06:29:06.407Z,7.08
2019-06-10T06:31:33.434Z,6.95
2019-06-10T06:34:03.050Z,7.28
2019-06-10T06:36:33.340Z,7.00
2019-06-10T06:38:59.199Z,6.97
2019-06-10T06:41:25.630Z,6.95
2019-06-10T06:43:53.100Z,7.10
2019-06-10T06:46:19.970Z,7.08
2019-06-10T06:48:47.481Z,6.92
2019-06-10T06:51:13.852Z,6.92
2019-06-10T06:53:48.352Z,6.60
2019-06-10T06:56:09.441Z,5.97
2019-06-10T06:58:37.359Z,5.60
2019-06-10T07:01:10.590Z,5.53
2019-06-10T07:03:36.312Z,5.12
2019-06-10T07:06:02.712Z,5.75
2019-06-10T07:08:33.285Z,5.55
2019-06-10T07:11:02.812Z,5.58
2019-06-10T07:13:35.415Z,5.30
2019-06-10T07:16:03.024Z,5.10
2019-06-10T07:18:29.126Z,5.75
2019-06-10T07:20:55.883Z,5.80
2019-06-10T07:23:22.606Z,5.83
2019-06-10T07:25:49.213Z,5.22
2019-06-10T07:28:15.828Z,5.97
2019-06-10T07:30:47.265Z,5.85
2019-06-10T07:33:12.195Z,6.12
2019-06-10T07:35:44.117Z,6.47
2019-06-10T07:38:12.205Z,5.97
2019-06-10T07:40:39.219Z,7.37
2019-06-10T07:43:05.770Z,5.78
2019-06-10T07:45:33.786Z,5.58
2019-06-10T07:48:02.755Z,5.95
2019-06-10T07:50:29.243Z,5.30
2019-06-10T07:52:55.775Z,5.67
2019-06-10T07:55:22.254Z,5.60
2019-06-10T07:57:49.149Z,5.70
2019-06-10T08:00:16.012Z,5.70
2019-06-10T08:02:44.666Z,5.35
2019-06-10T08:05:12.760Z,5.28
2019-06-10T08:10:06.035Z,5.35
2019-06-10T08:12:32.678Z,5.00
2019-06-10T08:17:04.097Z,5.40
2019-06-10T08:19:37.463Z,4.87
2019-06-10T08:21:59.234Z,5.42
2019-06-10T08:24:25.790Z,4.72
2019-06-10T08:26:53.115Z,5.28
2019-06-10T08:29:19.748Z,5.05
2019-06-10T08:33:48.812Z,4.95
2019-06-10T08:36:15.222Z,4.53
2019-06-10T08:38:44.919Z,4.60
2019-06-10T08:41:12.230Z,4.37
2019-06-10T08:43:39.034Z,4.37
2019-06-10T08:46:05.619Z,4.28
2019-06-10T08:48:32.991Z,4.10
2019-06-10T08:51:00.090Z,4.75
2019-06-10T08:53:26.786Z,4.28
2019-06-10T08:55:53.931Z,5.22
2019-06-10T08:58:22.581Z,4.20
2019-06-10T09:00:49.525Z,4.00
2019-06-10T09:03:16.189Z,4.22
2019-06-10T09:05:46.505Z,3.87
2019-06-10T09:08:12.981Z,3.87
2019-06-10T09:10:41.259Z,3.83
2019-06-10T09:13:08.146Z,3.92
2019-06-10T09:15:35.340Z,4.42
2019-06-10T09:18:02.632Z,4.12
2019-06-10T09:20:29.746Z,4.28
2019-06-10T09:23:15.039Z,4.37
2019-06-10T09:25:25.280Z,4.33
2019-06-10T09:27:54.248Z,3.60
2019-06-10T09:30:22.710Z,3.55
2019-06-10T09:32:52.934Z,3.72
2019-06-10T09:35:17.975Z,4.00
2019-06-10T09:37:48.355Z,4.50
2019-06-10T09:40:14.870Z,4.55
2019-06-10T09:42:45.524Z,4.80
2019-06-10T09:45:12.841Z,4.42
2019-06-10T09:47:42.587Z,4.60
2019-06-10T09:50:12.962Z,4.80
2019-06-10T09:52:42.164Z,5.30
2019-06-10T09:55:08.941Z,5.70
2019-06-10T09:57:35.549Z,5.25
2019-06-10T10:00:14.076Z,5.70
2019-06-10T10:02:47.998Z,5.12
2019-06-10T10:05:14.149Z,5.80
2019-06-10T10:07:44.383Z,6.08
2019-06-10T10:10:12.868Z,6.25
2019-06-10T10:12:41.735Z,6.22
2019-06-10T10:15:24.263Z,6.42
2019-06-10T10:17:48.246Z,6.22
2019-06-10T10:20:22.890Z,6.22
2019-06-10T10:23:02.534Z,6.53
2019-06-10T10:25:38.533Z,5.33
2019-06-10T10:28:08.346Z,5.72
2019-06-10T10:30:34.771Z,6.03
2019-06-10T10:33:05.880Z,5.15
2019-06-10T10:35:32.743Z,5.65
2019-06-10T10:37:59.380Z,5.12
2019-06-10T10:40:26.083Z,4.40
2019-06-10T10:43:01.770Z,4.58
2019-06-10T10:45:22.771Z,5.27
2019-06-10T10:47:49.492Z,4.25
2019-06-10T10:50:16.341Z,3.47
2019-06-10T10:52:44.757Z,4.37
2019-06-10T10:55:13.087Z,4.10
2019-06-10T10:57:40.299Z,4.65
2019-06-10T11:00:12.273Z,4.28
2019-06-10T11:02:38.542Z,4.75
2019-06-10T11:05:07.560Z,5.05
2019-06-10T11:07:34.091Z,5.03
2019-06-10T11:10:03.623Z,5.47
2019-06-10T11:12:29.429Z,6.67
2019-06-10T11:15:01.640Z,5.62
2019-06-10T11:17:25.815Z,5.37
2019-06-10T11:19:54.386Z,5.70
2019-06-10T11:22:23.164Z,6.97
2019-06-10T11:24:50.725Z,6.85
2019-06-10T11:27:18.411Z,6.43
2019-06-10T11:29:46.151Z,5.67
2019-06-10T11:32:13.735Z,8.10
2019-06-10T11:34:42.720Z,7.22
2019-06-10T11:37:08.550Z,7.97
2019-06-10T11:39:38.581Z,7.92
2019-06-10T11:42:04.015Z,7.55
2019-06-10T11:44:33.184Z,7.83
2019-06-10T11:46:59.744Z,8.38
2019-06-10T11:49:28.951Z,7.45
2019-06-10T11:51:56.506Z,7.75
2019-06-10T11:54:24.375Z,8.28
2019-06-10T11:56:54.604Z,10.30
2019-06-10T11:59:19.722Z,8.85
2019-06-10T12:01:46.317Z,6.80
2019-06-10T12:04:13.029Z,8.93
2019-06-10T12:06:39.610Z,8.70
2019-06-10T12:09:09.100Z,7.65
2019-06-10T12:11:36.806Z,8.35
2019-06-10T12:14:04.797Z,8.15
2019-06-10T12:17:15.372Z,7.50
2019-06-10T12:19:03.566Z,6.95
2019-06-10T12:21:29.551Z,8.60
2019-06-10T12:24:00.094Z,7.90
2019-06-10T12:26:26.009Z,6.75
2019-06-10T12:28:56.279Z,7.25
2019-06-10T12:31:23.280Z,6.50
2019-06-10T12:33:51.118Z,7.08
2019-06-10T12:36:19.680Z,7.85
2019-06-10T12:38:48.431Z,9.20
2019-06-10T12:41:15.890Z,8.23
2019-06-10T12:43:44.450Z,7.12
2019-06-10T12:46:12.779Z,7.50
2019-06-10T12:48:39.233Z,6.97
2019-06-10T12:51:08.954Z,6.47
2019-06-10T12:53:33.994Z,7.62
2019-06-10T12:56:07.381Z,7.47
2019-06-10T12:58:30.258Z,6.83
2019-06-10T13:00:57.229Z,6.03
2019-06-10T13:03:23.961Z,6.03
2019-06-10T13:05:53.131Z,6.72
2019-06-10T13:08:20.676Z,6.45
2019-06-10T13:10:47.966Z,5.72
2019-06-10T13:13:17.083Z,5.10
2019-06-10T13:15:44.620Z,5.20
2019-06-10T13:18:19.437Z,4.37
2019-06-10T13:20:49.848Z,4.00
2019-06-10T13:23:25.352Z,3.55
2019-06-10T13:25:54.341Z,4.55
2019-06-10T13:28:26.748Z,4.28
2019-06-10T13:31:06.549Z,4.45
2019-06-10T13:33:45.664Z,4.20
2019-06-10T13:36:25.374Z,4.03
2019-06-10T13:38:53.257Z,4.87
2019-06-10T13:41:26.047Z,4.90
2019-06-10T13:43:56.140Z,3.50
2019-06-10T13:46:24.649Z,3.58
2019-06-10T13:49:03.840Z,4.10
2019-06-10T13:51:35.682Z,3.30
2019-06-10T13:54:11.544Z,3.80
2019-06-10T13:56:47.033Z,3.85
2019-06-10T13:59:14.063Z,3.50
2019-06-10T14:01:45.140Z,3.92
2019-06-10T14:04:21.235Z,4.17
2019-06-10T14:06:49.378Z,3.20
2019-06-10T14:09:15.654Z,3.30
2019-06-10T14:11:36.798Z,2.98
2019-06-10T14:14:03.847Z,3.60
2019-06-10T14:16:33.186Z,3.83
2019-06-10T14:18:59.749Z,3.45
2019-06-10T14:21:26.559Z,3.77
2019-06-10T14:23:53.819Z,3.52
2019-06-10T14:26:34.499Z,3.72
2019-06-10T14:28:48.820Z,3.62
2019-06-10T14:31:38.752Z,3.95
2019-06-10T14:33:43.902Z,3.52
2019-06-10T14:36:14.373Z,4.35
2019-06-10T14:38:38.801Z,3.60
2019-06-10T14:41:06.498Z,4.03
2019-06-10T14:43:33.377Z,4.08
2019-06-10T14:46:02.370Z,3.92
2019-06-10T14:48:28.953Z,4.10
2019-06-10T14:50:55.314Z,4.05
2019-06-10T14:53:22.938Z,4.12
2019-06-10T14:55:52.928Z,4.72
2019-06-10T14:58:19.382Z,4.47
2019-06-10T15:00:46.304Z,4.90
2019-06-10T15:03:19.075Z,4.23
2019-06-10T15:05:43.369Z,4.70
2019-06-10T15:08:12.463Z,4.95
2019-06-10T15:10:38.294Z,4.75
2019-06-10T15:13:04.883Z,3.95
2019-06-10T15:15:33.599Z,4.70
2019-06-10T15:18:02.794Z,4.42
2019-06-10T15:20:29.260Z,4.60
2019-06-10T15:22:56.426Z,4.75
2019-06-10T15:25:27.902Z,4.80
2019-06-10T15:27:52.807Z,4.78
2019-06-10T15:30:26.163Z,5.17
2019-06-10T15:32:49.658Z,4.78
2019-06-10T15:35:20.140Z,4.47
2019-06-10T15:37:47.604Z,4.45
2019-06-10T15:40:16.670Z,4.92
2019-06-10T15:42:42.956Z,4.70
2019-06-10T15:45:10.042Z,5.37
2019-06-10T15:47:36.763Z,5.50
2019-06-10T15:50:04.090Z,5.20
2019-06-10T15:52:32.710Z,5.40
2019-06-10T15:54:58.996Z,2.83
2019-06-10T15:57:39.214Z,1.72
2019-06-10T15:59:56.310Z,1.77
2019-06-10T16:02:25.617Z,2.00
2019-06-10T16:04:52.704Z,1.50
2019-06-10T16:07:20.929Z,1.00
2019-06-10T16:09:47.970Z,1.10
2019-06-10T16:12:16.665Z,1.27
2019-06-10T16:14:42.955Z,1.30
2019-06-10T16:17:09.611Z,1.40
2019-06-10T16:19:35.992Z,1.42
2019-06-10T16:22:03.265Z,2.12
2019-06-10T16:24:29.854Z,2.77
2019-06-10T16:26:56.347Z,7.17
2019-06-10T16:29:25.516Z,8.08
2019-06-10T16:31:54.864Z,6.47
2019-06-10T16:34:21.960Z,8.65
2019-06-10T16:36:49.600Z,5.47
2019-06-10T16:39:16.975Z,6.75
2019-06-10T16:41:43.785Z,8.68
2019-06-10T16:44:13.637Z,10.20
2019-06-10T16:46:44.226Z,8.38
2019-06-10T16:49:12.746Z,8.88
2019-06-10T16:51:39.289Z,10.35
2019-06-10T16:54:10.077Z,8.90
2019-06-10T16:56:40.077Z,10.53
2019-06-10T16:59:06.625Z,9.98
2019-06-10T17:01:33.601Z,9.60
2019-06-10T17:03:59.974Z,8.73
2019-06-10T17:06:26.966Z,8.25
2019-06-10T17:08:53.823Z,9.18
2019-06-10T17:11:23.381Z,9.65
2019-06-10T17:13:49.038Z,10.38
2019-06-10T17:16:15.543Z,10.03
2019-06-10T17:18:45.821Z,10.23
2019-06-10T17:21:13.365Z,9.95
2019-06-10T17:23:40.013Z,9.98
2019-06-10T17:26:08.311Z,10.63
2019-06-10T17:28:42.632Z,11.45
2019-06-10T17:31:13.669Z,11.45
2019-06-10T17:33:43.074Z,10.90
2019-06-10T17:36:12.881Z,11.13
2019-06-10T17:38:43.008Z,10.70
2019-06-10T17:41:16.212Z,9.48
2019-06-10T17:43:52.497Z,10.40
2019-06-10T17:46:21.164Z,8.48
2019-06-10T17:48:48.992Z,7.72
2019-06-10T17:51:15.720Z,7.47
2019-06-10T17:53:43.180Z,6.70
2019-06-10T17:56:16.915Z,7.70
2019-06-10T17:58:53.819Z,7.17
2019-06-10T18:01:15.600Z,6.58
2019-06-10T18:03:43.211Z,5.83
2019-06-10T18:06:09.677Z,5.85
2019-06-10T18:08:40.675Z,5.33
2019-06-10T18:11:07.221Z,5.75
2019-06-10T18:13:35.897Z,5.70
2019-06-10T18:16:02.891Z,5.45
2019-06-10T18:18:30.646Z,4.92
2019-06-10T18:21:03.383Z,5.50
2019-06-10T18:23:35.976Z,4.90
2019-06-10T18:26:12.285Z,5.60
2019-06-10T18:29:00.859Z,5.22
2019-06-10T18:31:18.690Z,4.55
2019-06-10T18:33:45.434Z,5.47
2019-06-10T18:36:13.103Z,5.17
2019-06-10T18:38:39.779Z,5.25
2019-06-10T18:41:06.340Z,5.87
2019-06-10T18:43:35.266Z,6.12
2019-06-10T18:46:03.435Z,6.20
2019-06-10T18:48:31.783Z,5.78
2019-06-10T18:50:57.928Z,5.87
2019-06-10T18:53:24.713Z,5.42
2019-06-10T18:55:52.327Z,6.05
2019-06-10T18:58:22.185Z,5.55
2019-06-10T19:00:59.175Z,5.55
2019-06-10T19:03:17.032Z,6.42
2019-06-10T19:05:43.642Z,6.17
2019-06-10T19:08:10.248Z,5.40
2019-06-10T19:10:38.338Z,5.65
2019-06-10T19:13:19.234Z,6.22
2019-06-10T19:15:45.857Z,5.92
2019-06-10T19:18:15.541Z,5.85
2019-06-10T19:20:45.079Z,6.22
2019-06-10T19:23:12.653Z,6.20
2019-06-10T19:25:41.340Z,7.10
2019-06-10T19:28:07.699Z,6.50
2019-06-10T19:30:37.130Z,5.72
2019-06-10T19:33:02.876Z,6.75
2019-06-10T19:35:31.696Z,5.95
2019-06-10T19:37:57.765Z,6.37
2019-06-10T19:40:25.334Z,6.50
2019-06-10T19:42:52.984Z,6.72
2019-06-10T19:45:19.831Z,6.30
2019-06-10T19:47:46.477Z,5.92
2019-06-10T19:50:13.495Z,7.50
2019-06-10T19:52:41.578Z,6.45
2019-06-10T19:55:08.824Z,7.78
2019-06-10T19:57:35.957Z,7.03
2019-06-10T20:00:11.808Z,6.67
2019-06-10T20:02:35.704Z,6.97
2019-06-10T20:05:05.241Z,6.55
2019-06-10T20:07:31.613Z,7.03
2019-06-10T20:09:58.127Z,6.45
2019-06-10T20:12:24.994Z,6.42
2019-06-10T20:14:52.916Z,6.70
2019-06-10T20:17:22.616Z,7.28
2019-06-10T20:19:48.713Z,7.25
2019-06-10T20:22:15.257Z,7.10
2019-06-10T20:24:44.781Z,6.03
2019-06-10T20:27:10.278Z,6.92
2019-06-10T20:29:37.844Z,6.65
2019-06-10T20:32:04.953Z,6.80
2019-06-10T20:34:31.600Z,6.70
2019-06-10T20:36:58.109Z,7.05
2019-06-10T20:39:29.152Z,6.55
2019-06-10T20:41:55.784Z,6.80
2019-06-10T20:44:22.429Z,6.70
2019-06-10T20:46:49.311Z,7.25
2019-06-10T20:49:17.044Z,6.97
2019-06-10T20:52:10.819Z,6.97
2019-06-10T20:54:32.427Z,6.45
2019-06-10T20:56:59.067Z,6.50
2019-06-10T20:59:26.211Z,8.05
2019-06-10T21:01:53.673Z,6.78
2019-06-10T21:04:20.398Z,6.80
2019-06-10T21:06:49.529Z,6.58
2019-06-10T21:09:16.208Z,7.37
2019-06-10T21:11:45.442Z,7.05
2019-06-10T21:14:12.286Z,6.97
2019-06-10T21:16:39.913Z,7.40
2019-06-10T21:19:06.509Z,7.12
2019-06-10T21:21:33.068Z,7.03
2019-06-10T21:24:02.084Z,7.25
2019-06-10T21:26:32.334Z,7.35
2019-06-10T21:28:58.190Z,7.80
2019-06-10T21:31:24.560Z,8.13
2019-06-10T21:33:55.354Z,8.28
2019-06-10T21:36:19.261Z,8.80
2019-06-10T21:38:48.181Z,8.78
2019-06-10T21:41:14.174Z,8.40
2019-06-10T21:43:43.644Z,8.50
2019-06-10T21:46:08.887Z,8.68
2019-06-10T21:48:35.632Z,8.63
2019-06-10T21:51:04.540Z,9.15
2019-06-10T21:53:30.999Z,9.18
2019-06-10T21:55:57.833Z,8.45
2019-06-10T21:58:24.305Z,8.90
2019-06-10T22:01:06.513Z,9.53
2019-06-10T22:03:23.312Z,9.78
2019-06-10T22:05:51.586Z,9.25
2019-06-10T22:08:18.639Z,9.63
2019-06-10T22:10:45.934Z,10.55
2019-06-10T22:13:12.837Z,11.05
2019-06-10T22:15:42.461Z,11.95
2019-06-10T22:18:12.579Z,11.80
2019-06-10T22:20:42.961Z,12.68
2019-06-10T22:23:12.663Z,11.75
2019-06-10T22:25:38.691Z,12.30
2019-06-10T22:28:06.031Z,13.03
2019-06-10T22:30:33.667Z,12.00
2019-06-10T22:33:00.061Z,13.22
2019-06-10T22:35:26.576Z,12.25
2019-06-10T22:37:55.170Z,12.58
2019-06-10T22:40:22.442Z,12.80
2019-06-10T22:42:49.297Z,12.75
2019-06-10T22:45:16.202Z,12.55
2019-06-10T22:47:42.747Z,12.70
2019-06-10T22:50:09.660Z,12.63
2019-06-10T22:52:36.024Z,12.23
2019-06-10T22:55:05.398Z,12.45
2019-06-10T22:57:31.781Z,11.38
2019-06-10T23:00:03.049Z,12.07
2019-06-10T23:02:30.364Z,12.53
2019-06-10T23:04:59.403Z,12.00
2019-06-10T23:07:25.224Z,12.95
2019-06-10T23:09:53.342Z,13.05
2019-06-10T23:12:20.202Z,12.90
2019-06-10T23:14:46.561Z,13.75
2019-06-10T23:17:14.162Z,13.30
2019-06-10T23:19:42.754Z,14.13
2019-06-10T23:22:12.585Z,13.98
2019-06-10T23:24:37.380Z,14.28
2019-06-10T23:27:03.737Z,14.28
2019-06-10T23:29:32.261Z,15.00
2019-06-10T23:32:03.653Z,15.32
2019-06-10T23:34:26.827Z,15.30
2019-06-10T23:36:55.352Z,15.32
2019-06-10T23:39:22.591Z,15.28
2019-06-10T23:41:50.454Z,15.50
2019-06-10T23:44:17.563Z,15.78
2019-06-10T23:46:43.956Z,14.23
2019-06-10T23:49:12.303Z,15.08
2019-06-10T23:51:38.787Z,16.17
2019-06-10T23:54:06.327Z,14.87
2019-06-10T23:56:33.277Z,14.25
2019-06-10T23:59:03.067Z,15.50
